sensor_id;sensor_type;location;lat;lon;timestamp;pressure;altitude;pressure_sealevel;temperature;humidity
57442;BME280;43284;47.042;15.498;2024-02-15T00:00:37;97733.25;;;0.28;100.00
57442;BME280;43284;47.042;15.498;2024-02-15T00:03:05;97722.13;;;0.25;100.00
57442;BME280;43284;47.042;15.498;2024-02-15T00:05:34;97720.38;;;0.17;100.00
57442;BME280;43284;47.042;15.498;2024-02-15T00:08:02;97729.84;;;0.18;100.00
57442;BME280;43284;47.042;15.498;2024-02-15T00:10:28;97726.41;;;0.18;100.00
57442;BME280;43284;47.042;15.498;2024-02-15T00:12:53;97721.25;;;0.16;100.00
57442;BME280;43284;47.042;15.498;2024-02-15T00:15:19;97714.41;;;0.14;100.00
57442;BME280;43284;47.042;15.498;2024-02-15T00:17:45;97723.84;;;0.18;100.00
57442;BME280;43284;47.042;15.498;2024-02-15T00:20:12;97722.97;;;0.20;100.00
57442;BME280;43284;47.042;15.498;2024-02-15T00:22:38;97720.41;;;0.14;100.00
57442;BME280;43284;47.042;15.498;2024-02-15T00:25:06;97722.97;;;0.20;100.00
57442;BME280;43284;47.042;15.498;2024-02-15T00:27:37;97722.13;;;0.18;100.00
57442;BME280;43284;47.042;15.498;2024-02-15T00:30:03;97724.69;;;0.14;100.00
57442;BME280;43284;47.042;15.498;2024-02-15T00:32:30;97732.38;;;0.02;100.00
57442;BME280;43284;47.042;15.498;2024-02-15T00:34:56;97724.66;;;-0.03;100.00
57442;BME280;43284;47.042;15.498;2024-02-15T00:37:24;97728.09;;;0.01;100.00
57442;BME280;43284;47.042;15.498;2024-02-15T00:39:50;97729.78;;;-0.03;100.00
57442;BME280;43284;47.042;15.498;2024-02-15T00:42:22;97728.09;;;0.04;100.00
57442;BME280;43284;47.042;15.498;2024-02-15T00:44:47;97728.09;;;0.01;100.00
57442;BME280;43284;47.042;15.498;2024-02-15T00:47:15;97719.50;;;0.02;100.00
57442;BME280;43284;47.042;15.498;2024-02-15T00:49:43;97721.25;;;0.03;100.00
57442;BME280;43284;47.042;15.498;2024-02-15T00:52:10;97723.81;;;0.01;100.00
57442;BME280;43284;47.042;15.498;2024-02-15T00:54:35;97730.66;;;-0.01;100.00
57442;BME280;43284;47.042;15.498;2024-02-15T00:57:04;97721.22;;;-0.01;100.00
57442;BME280;43284;47.042;15.498;2024-02-15T00:59:29;97722.09;;;0.02;100.00
57442;BME280;43284;47.042;15.498;2024-02-15T01:01:55;97728.06;;;-0.07;100.00
57442;BME280;43284;47.042;15.498;2024-02-15T01:04:21;97728.91;;;-0.05;100.00
57442;BME280;43284;47.042;15.498;2024-02-15T01:06:49;97733.22;;;-0.09;100.00
57442;BME280;43284;47.042;15.498;2024-02-15T01:09:17;97739.19;;;-0.07;100.00
57442;BME280;43284;47.042;15.498;2024-02-15T01:11:46;97734.94;;;-0.06;100.00
57442;BME280;43284;47.042;15.498;2024-02-15T01:14:21;97739.19;;;-0.05;100.00
57442;BME280;43284;47.042;15.498;2024-02-15T01:16:47;97737.50;;;-0.03;100.00
57442;BME280;43284;47.042;15.498;2024-02-15T01:19:15;97740.94;;;-0.01;100.00
57442;BME280;43284;47.042;15.498;2024-02-15T01:21:40;97737.53;;;0.00;100.00
57442;BME280;43284;47.042;15.498;2024-02-15T01:24:08;97733.22;;;0.02;100.00
57442;BME280;43284;47.042;15.498;2024-02-15T01:26:33;97730.66;;;0.05;100.00
57442;BME280;43284;47.042;15.498;2024-02-15T01:29:00;97728.09;;;0.10;100.00
57442;BME280;43284;47.042;15.498;2024-02-15T01:31:30;97722.97;;;0.14;100.00
57442;BME280;43284;47.042;15.498;2024-02-15T01:33:56;97722.13;;;0.18;100.00
57442;BME280;43284;47.042;15.498;2024-02-15T01:36:22;97721.25;;;0.21;100.00
57442;BME280;43284;47.042;15.498;2024-02-15T01:38:51;97722.97;;;0.17;100.00
57442;BME280;43284;47.042;15.498;2024-02-15T01:41:17;97726.41;;;0.23;100.00
57442;BME280;43284;47.042;15.498;2024-02-15T01:43:45;97726.41;;;0.26;100.00
57442;BME280;43284;47.042;15.498;2024-02-15T01:46:11;97719.56;;;0.29;100.00
57442;BME280;43284;47.042;15.498;2024-02-15T01:48:39;97718.72;;;0.32;100.00
57442;BME280;43284;47.042;15.498;2024-02-15T01:51:06;97728.16;;;0.37;100.00
57442;BME280;43284;47.042;15.498;2024-02-15T01:53:32;97720.44;;;0.40;100.00
57442;BME280;43284;47.042;15.498;2024-02-15T01:55:58;97712.72;;;0.44;100.00
57442;BME280;43284;47.042;15.498;2024-02-15T01:58:25;97717.03;;;0.46;100.00
57442;BME280;43284;47.042;15.498;2024-02-15T02:00:53;97719.59;;;0.46;100.00
57442;BME280;43284;47.042;15.498;2024-02-15T02:03:21;97709.28;;;0.48;100.00
57442;BME280;43284;47.042;15.498;2024-02-15T02:05:47;97710.16;;;0.48;100.00
57442;BME280;43284;47.042;15.498;2024-02-15T02:08:12;97707.56;;;0.50;100.00
57442;BME280;43284;47.042;15.498;2024-02-15T02:10:39;97705.00;;;0.51;100.00
57442;BME280;43284;47.042;15.498;2024-02-15T02:13:05;97701.56;;;0.55;100.00
57442;BME280;43284;47.042;15.498;2024-02-15T02:15:33;97699.00;;;0.55;100.00
57442;BME280;43284;47.042;15.498;2024-02-15T02:18:00;97705.00;;;0.59;100.00
57442;BME280;43284;47.042;15.498;2024-02-15T02:20:26;97698.13;;;0.61;100.00
57442;BME280;43284;47.042;15.498;2024-02-15T02:22:54;97705.88;;;0.64;100.00
57442;BME280;43284;47.042;15.498;2024-02-15T02:25:27;97701.56;;;0.68;100.00
57442;BME280;43284;47.042;15.498;2024-02-15T02:27:58;97699.00;;;0.71;100.00
57442;BME280;43284;47.042;15.498;2024-02-15T02:30:27;97704.13;;;0.68;100.00
57442;BME280;43284;47.042;15.498;2024-02-15T02:32:56;97707.56;;;0.56;100.00
57442;BME280;43284;47.042;15.498;2024-02-15T02:35:25;97705.00;;;0.65;100.00
57442;BME280;43284;47.042;15.498;2024-02-15T02:37:54;97703.28;;;0.70;100.00
57442;BME280;43284;47.042;15.498;2024-02-15T02:40:19;97705.00;;;0.71;100.00
57442;BME280;43284;47.042;15.498;2024-02-15T02:42:55;97698.13;;;0.73;100.00
57442;BME280;43284;47.042;15.498;2024-02-15T02:45:22;97699.00;;;0.77;100.00
57442;BME280;43284;47.042;15.498;2024-02-15T02:47:51;97695.56;;;0.78;100.00
57442;BME280;43284;47.042;15.498;2024-02-15T02:50:17;97696.41;;;0.78;100.00
57442;BME280;43284;47.042;15.498;2024-02-15T02:52:44;97693.84;;;0.80;100.00
57442;BME280;43284;47.042;15.498;2024-02-15T02:55:10;97691.28;;;0.81;100.00
57442;BME280;43284;47.042;15.498;2024-02-15T02:57:37;97687.84;;;0.86;100.00
57442;BME280;43284;47.042;15.498;2024-02-15T03:00:07;97689.53;;;0.90;100.00
57442;BME280;43284;47.042;15.498;2024-02-15T03:02:42;97692.97;;;0.96;100.00
57442;BME280;43284;47.042;15.498;2024-02-15T03:05:11;97687.81;;;0.99;100.00
57442;BME280;43284;47.042;15.498;2024-02-15T03:07:38;97692.06;;;1.00;100.00
57442;BME280;43284;47.042;15.498;2024-02-15T03:10:08;97684.38;;;1.03;100.00
57442;BME280;43284;47.042;15.498;2024-02-15T03:12:38;97681.78;;;1.05;100.00
57442;BME280;43284;47.042;15.498;2024-02-15T03:15:05;97686.94;;;1.03;100.00
57442;BME280;43284;47.042;15.498;2024-02-15T03:17:37;97688.66;;;0.97;100.00
57442;BME280;43284;47.042;15.498;2024-02-15T03:20:06;97689.53;;;0.97;100.00
57442;BME280;43284;47.042;15.498;2024-02-15T03:22:36;97690.38;;;0.99;100.00
57442;BME280;43284;47.042;15.498;2024-02-15T03:25:04;97683.50;;;1.03;100.00
57442;BME280;43284;47.042;15.498;2024-02-15T03:27:33;97698.09;;;1.04;100.00
57442;BME280;43284;47.042;15.498;2024-02-15T03:30:01;97694.63;;;1.07;100.00
57442;BME280;43284;47.042;15.498;2024-02-15T03:32:28;97696.34;;;1.12;100.00
57442;BME280;43284;47.042;15.498;2024-02-15T03:34:53;97692.91;;;1.13;100.00
57442;BME280;43284;47.042;15.498;2024-02-15T03:37:19;97688.63;;;1.18;100.00
57442;BME280;43284;47.042;15.498;2024-02-15T03:39:46;97683.44;;;1.21;100.00
57442;BME280;43284;47.042;15.498;2024-02-15T03:42:12;97685.19;;;1.22;100.00
57442;BME280;43284;47.042;15.498;2024-02-15T03:44:38;97680.84;;;1.24;100.00
57442;BME280;43284;47.042;15.498;2024-02-15T03:47:04;97668.81;;;1.27;100.00
57442;BME280;43284;47.042;15.498;2024-02-15T03:49:30;97666.25;;;1.27;100.00
57442;BME280;43284;47.042;15.498;2024-02-15T03:51:57;97661.97;;;1.29;100.00
57442;BME280;43284;47.042;15.498;2024-02-15T03:54:25;97666.25;;;1.31;100.00
57442;BME280;43284;47.042;15.498;2024-02-15T03:56:51;97669.66;;;1.35;100.00
57442;BME280;43284;47.042;15.498;2024-02-15T03:59:21;97669.66;;;1.38;100.00
57442;BME280;43284;47.042;15.498;2024-02-15T04:01:52;97672.22;;;1.39;100.00
57442;BME280;43284;47.042;15.498;2024-02-15T04:04:17;97667.91;;;1.40;100.00
57442;BME280;43284;47.042;15.498;2024-02-15T04:06:43;97674.81;;;1.38;100.00
57442;BME280;43284;47.042;15.498;2024-02-15T04:09:08;97678.28;;;1.26;100.00
57442;BME280;43284;47.042;15.498;2024-02-15T04:11:36;97681.75;;;1.19;100.00
57442;BME280;43284;47.042;15.498;2024-02-15T04:14:03;97684.34;;;1.14;100.00
57442;BME280;43284;47.042;15.498;2024-02-15T04:16:28;97680.91;;;1.18;100.00
57442;BME280;43284;47.042;15.498;2024-02-15T04:18:56;97679.19;;;1.13;100.00
57442;BME280;43284;47.042;15.498;2024-02-15T04:21:24;97680.06;;;1.09;100.00
57442;BME280;43284;47.042;15.498;2024-02-15T04:23:49;97682.63;;;1.02;100.00
57442;BME280;43284;47.042;15.498;2024-02-15T04:26:17;97688.63;;;1.11;100.00
57442;BME280;43284;47.042;15.498;2024-02-15T04:28:45;97684.34;;;1.10;100.00
57442;BME280;43284;47.042;15.498;2024-02-15T04:31:13;97686.91;;;1.07;100.00
57442;BME280;43284;47.042;15.498;2024-02-15T04:33:39;97679.19;;;1.13;100.00
57442;BME280;43284;47.042;15.498;2024-02-15T04:36:05;97680.88;;;1.15;100.00
57442;BME280;43284;47.042;15.498;2024-02-15T04:38:32;97692.91;;;1.21;100.00
57442;BME280;43284;47.042;15.498;2024-02-15T04:41:01;97681.72;;;1.22;100.00
57442;BME280;43284;47.042;15.498;2024-02-15T04:43:26;97687.72;;;1.24;100.00
57442;BME280;43284;47.042;15.498;2024-02-15T04:45:52;97687.72;;;1.24;100.00
57442;BME280;43284;47.042;15.498;2024-02-15T04:48:17;97686.03;;;1.21;100.00
57442;BME280;43284;47.042;15.498;2024-02-15T04:50:44;97687.72;;;1.24;100.00
57442;BME280;43284;47.042;15.498;2024-02-15T04:53:10;97678.28;;;1.26;100.00
57442;BME280;43284;47.042;15.498;2024-02-15T04:55:36;97680.84;;;1.24;100.00
57442;BME280;43284;47.042;15.498;2024-02-15T04:58:02;97677.41;;;1.30;100.00
57442;BME280;43284;47.042;15.498;2024-02-15T05:00:29;97680.00;;;1.32;100.00
57442;BME280;43284;47.042;15.498;2024-02-15T05:02:55;97683.41;;;1.34;100.00
57442;BME280;43284;47.042;15.498;2024-02-15T05:05:21;97689.41;;;1.39;100.00
57442;BME280;43284;47.042;15.498;2024-02-15T05:07:47;97683.41;;;1.38;100.00
57442;BME280;43284;47.042;15.498;2024-02-15T05:10:14;97696.25;;;1.41;100.00
57442;BME280;43284;47.042;15.498;2024-02-15T05:12:41;97696.25;;;1.40;100.00
57442;BME280;43284;47.042;15.498;2024-02-15T05:15:08;97692.84;;;1.38;100.00
57442;BME280;43284;47.042;15.498;2024-02-15T05:17:41;97685.94;;;1.40;100.00
57442;BME280;43284;47.042;15.498;2024-02-15T05:20:08;97694.53;;;1.42;100.00
57442;BME280;43284;47.042;15.498;2024-02-15T05:22:37;97689.38;;;1.43;100.00
57442;BME280;43284;47.042;15.498;2024-02-15T05:25:05;97685.97;;;1.44;100.00
57442;BME280;43284;47.042;15.498;2024-02-15T05:27:31;97691.09;;;1.48;100.00
57442;BME280;43284;47.042;15.498;2024-02-15T05:29:57;97678.22;;;1.49;100.00
57442;BME280;43284;47.042;15.498;2024-02-15T05:32:22;97681.59;;;1.53;100.00
57442;BME280;43284;47.042;15.498;2024-02-15T05:34:48;97686.75;;;1.56;100.00
57442;BME280;43284;47.042;15.498;2024-02-15T05:37:14;97688.47;;;1.57;100.00
57442;BME280;43284;47.042;15.498;2024-02-15T05:39:41;97679.84;;;1.61;100.00
57442;BME280;43284;47.042;15.498;2024-02-15T05:42:09;97685.88;;;1.64;100.00
57442;BME280;43284;47.042;15.498;2024-02-15T05:44:35;97688.41;;;1.66;100.00
57442;BME280;43284;47.042;15.498;2024-02-15T05:47:01;97684.13;;;1.70;100.00
57442;BME280;43284;47.042;15.498;2024-02-15T05:49:26;97691.84;;;1.70;100.00
57442;BME280;43284;47.042;15.498;2024-02-15T05:51:53;97691.84;;;1.71;100.00
57442;BME280;43284;47.042;15.498;2024-02-15T05:54:21;97684.97;;;1.73;100.00
57442;BME280;43284;47.042;15.498;2024-02-15T05:56:50;97682.34;;;1.75;100.00
57442;BME280;43284;47.042;15.498;2024-02-15T05:59:19;97678.94;;;1.77;100.00
57442;BME280;43284;47.042;15.498;2024-02-15T06:01:46;97684.06;;;1.79;100.00
57442;BME280;43284;47.042;15.498;2024-02-15T06:04:16;97682.38;;;1.79;100.00
57442;BME280;43284;47.042;15.498;2024-02-15T06:06:45;97687.50;;;1.81;100.00
57442;BME280;43284;47.042;15.498;2024-02-15T06:09:17;97684.06;;;1.80;100.00
57442;BME280;43284;47.042;15.498;2024-02-15T06:11:42;97687.50;;;1.81;100.00
57442;BME280;43284;47.042;15.498;2024-02-15T06:14:10;97691.78;;;1.79;100.00
57442;BME280;43284;47.042;15.498;2024-02-15T06:16:43;97697.81;;;1.76;100.00
57442;BME280;43284;47.042;15.498;2024-02-15T06:19:09;97690.09;;;1.79;100.00
57442;BME280;43284;47.042;15.498;2024-02-15T06:21:34;97699.53;;;1.82;100.00
57442;BME280;43284;47.042;15.498;2024-02-15T06:24:00;97702.94;;;1.87;100.00
57442;BME280;43284;47.042;15.498;2024-02-15T06:26:25;97714.97;;;1.88;100.00
57442;BME280;43284;47.042;15.498;2024-02-15T06:28:51;97704.66;;;1.87;100.00
57442;BME280;43284;47.042;15.498;2024-02-15T06:31:34;97711.53;;;1.86;100.00
57442;BME280;43284;47.042;15.498;2024-02-15T06:34:18;97708.97;;;1.86;100.00
57442;BME280;43284;47.042;15.498;2024-02-15T06:37:03;97708.09;;;1.89;100.00
57442;BME280;43284;47.042;15.498;2024-02-15T06:39:47;97707.19;;;1.94;100.00
57442;BME280;43284;47.042;15.498;2024-02-15T06:42:19;97708.03;;;1.99;100.00
57442;BME280;43284;47.042;15.498;2024-02-15T06:44:48;97712.28;;;2.06;100.00
57442;BME280;43284;47.042;15.498;2024-02-15T06:47:14;97706.25;;;2.12;100.00
57442;BME280;43284;47.042;15.498;2024-02-15T06:49:43;97716.50;;;2.18;100.00
57442;BME280;43284;47.042;15.498;2024-02-15T06:52:11;97719.03;;;2.24;100.00
57442;BME280;43284;47.042;15.498;2024-02-15T06:54:41;97727.59;;;2.31;100.00
57442;BME280;43284;47.042;15.498;2024-02-15T06:57:07;97721.53;;;2.37;100.00
57442;BME280;43284;47.042;15.498;2024-02-15T06:59:32;97728.38;;;2.42;100.00
57442;BME280;43284;47.042;15.498;2024-02-15T07:02:00;97729.19;;;2.49;100.00
57442;BME280;43284;47.042;15.498;2024-02-15T07:04:31;97734.34;;;2.54;100.00
57442;BME280;43284;47.042;15.498;2024-02-15T07:06:58;97726.56;;;2.57;100.00
57442;BME280;43284;47.042;15.498;2024-02-15T07:09:25;97730.78;;;2.64;100.00
57442;BME280;43284;47.042;15.498;2024-02-15T07:11:51;97727.28;;;2.71;100.00
57442;BME280;43284;47.042;15.498;2024-02-15T07:14:17;97725.50;;;2.79;100.00
57442;BME280;43284;47.042;15.498;2024-02-15T07:16:46;97730.56;;;2.88;100.00
57442;BME280;43284;47.042;15.498;2024-02-15T07:19:15;97721.09;;;2.94;100.00
57442;BME280;43284;47.042;15.498;2024-02-15T07:21:42;97727.88;;;3.02;100.00
57442;BME280;43284;47.042;15.498;2024-02-15T07:24:08;97733.81;;;3.12;100.00
57442;BME280;43284;47.042;15.498;2024-02-15T07:26:35;97733.75;;;3.18;100.00
57442;BME280;43284;47.042;15.498;2024-02-15T07:29:01;97726.78;;;3.26;100.00
57442;BME280;43284;47.042;15.498;2024-02-15T07:31:31;97732.69;;;3.39;100.00
57442;BME280;43284;47.042;15.498;2024-02-15T07:33:58;97737.69;;;3.51;100.00
57442;BME280;43284;47.042;15.498;2024-02-15T07:36:24;97729.03;;;3.59;100.00
57442;BME280;43284;47.042;15.498;2024-02-15T07:38:53;97720.31;;;3.64;100.00
57442;BME280;43284;47.042;15.498;2024-02-15T07:41:22;97719.38;;;3.71;100.00
57442;BME280;43284;47.042;15.498;2024-02-15T07:43:51;97718.38;;;3.82;100.00
57442;BME280;43284;47.042;15.498;2024-02-15T07:46:21;97715.72;;;3.88;100.00
57442;BME280;43284;47.042;15.498;2024-02-15T07:48:47;97702.72;;;3.94;100.00
57442;BME280;43284;47.042;15.498;2024-02-15T07:51:14;97703.50;;;3.99;100.00
57442;BME280;43284;47.042;15.498;2024-02-15T07:53:40;97693.09;;;4.04;100.00
57442;BME280;43284;47.042;15.498;2024-02-15T07:56:06;97697.34;;;4.08;100.00
57442;BME280;43284;47.042;15.498;2024-02-15T07:58:32;97696.38;;;4.17;100.00
57442;BME280;43284;47.042;15.498;2024-02-15T08:00:57;97692.84;;;4.21;100.00
57442;BME280;43284;47.042;15.498;2024-02-15T08:03:25;97703.06;;;4.30;100.00
57442;BME280;43284;47.042;15.498;2024-02-15T08:05:52;97696.91;;;4.39;100.00
57442;BME280;43284;47.042;15.498;2024-02-15T08:08:17;97693.31;;;4.46;100.00
57442;BME280;43284;47.042;15.498;2024-02-15T08:10:43;97696.66;;;4.52;100.00
57442;BME280;43284;47.042;15.498;2024-02-15T08:13:10;97699.16;;;4.60;100.00
57442;BME280;43284;47.042;15.498;2024-02-15T08:15:36;97690.41;;;4.67;100.00
57442;BME280;43284;47.042;15.498;2024-02-15T08:18:01;97702.25;;;4.81;100.00
57442;BME280;43284;47.042;15.498;2024-02-15T08:20:30;97702.06;;;4.93;99.58
57442;BME280;43284;47.042;15.498;2024-02-15T08:22:56;97696.41;;;5.21;95.09
57442;BME280;43284;47.042;15.498;2024-02-15T08:25:24;97693.81;;;5.21;97.50
57442;BME280;43284;47.042;15.498;2024-02-15T08:27:50;97693.63;;;5.30;98.53
57442;BME280;43284;47.042;15.498;2024-02-15T08:30:16;97690.03;;;5.37;97.93
57442;BME280;43284;47.042;15.498;2024-02-15T08:32:43;97686.16;;;5.58;96.35
57442;BME280;43284;47.042;15.498;2024-02-15T08:35:09;97696.44;;;5.63;96.05
57442;BME280;43284;47.042;15.498;2024-02-15T08:37:36;97688.63;;;5.64;95.74
57442;BME280;43284;47.042;15.498;2024-02-15T08:40:04;97691.88;;;5.74;96.20
57442;BME280;43284;47.042;15.498;2024-02-15T08:42:42;97702.84;;;5.88;95.75
57442;BME280;43284;47.042;15.498;2024-02-15T08:45:08;97689.75;;;5.93;94.56
57442;BME280;43284;47.042;15.498;2024-02-15T08:47:41;97689.59;;;6.02;94.59
57442;BME280;43284;47.042;15.498;2024-02-15T08:50:08;97695.25;;;6.21;96.23
57442;BME280;43284;47.042;15.498;2024-02-15T08:52:40;97688.91;;;6.33;94.00
57442;BME280;43284;47.042;15.498;2024-02-15T08:55:10;97687.56;;;6.54;92.57
57442;BME280;43284;47.042;15.498;2024-02-15T08:57:39;97684.50;;;6.72;90.76
57442;BME280;43284;47.042;15.498;2024-02-15T09:00:07;97675.59;;;6.83;87.77
57442;BME280;43284;47.042;15.498;2024-02-15T09:02:40;97670.84;;;6.98;85.51
57442;BME280;43284;47.042;15.498;2024-02-15T09:05:06;97669.91;;;7.01;87.47
57442;BME280;43284;47.042;15.498;2024-02-15T09:07:31;97667.00;;;7.13;87.67
57442;BME280;43284;47.042;15.498;2024-02-15T09:09:57;97666.88;;;7.18;88.07
57442;BME280;43284;47.042;15.498;2024-02-15T09:12:22;97669.31;;;7.24;85.36
57442;BME280;43284;47.042;15.498;2024-02-15T09:14:50;97673.16;;;7.42;84.26
57442;BME280;43284;47.042;15.498;2024-02-15T09:17:19;97670.28;;;7.51;85.91
57442;BME280;43284;47.042;15.498;2024-02-15T09:19:47;97668.19;;;7.64;84.16
57442;BME280;43284;47.042;15.498;2024-02-15T09:22:15;97664.44;;;7.74;83.98
57442;BME280;43284;47.042;15.498;2024-02-15T09:24:43;97658.03;;;7.84;83.91
57442;BME280;43284;47.042;15.498;2024-02-15T09:27:09;97660.28;;;7.97;81.49
57442;BME280;43284;47.042;15.498;2024-02-15T09:29:37;97656.56;;;8.05;80.63
57442;BME280;43284;47.042;15.498;2024-02-15T09:32:04;97666.63;;;8.16;81.36
57442;BME280;43284;47.042;15.498;2024-02-15T09:34:29;97670.47;;;8.33;80.16
57442;BME280;43284;47.042;15.498;2024-02-15T09:36:55;97672.84;;;8.69;80.49
57442;BME280;43284;47.042;15.498;2024-02-15T09:39:22;97674.28;;;8.77;80.77
57442;BME280;43284;47.042;15.498;2024-02-15T09:41:51;97669.94;;;9.03;75.63
57442;BME280;43284;47.042;15.498;2024-02-15T09:44:23;97666.69;;;8.96;73.65
57442;BME280;43284;47.042;15.498;2024-02-15T09:47:03;97663.88;;;9.02;71.00
57442;BME280;43284;47.042;15.498;2024-02-15T09:49:37;97654.56;;;8.95;72.66
57442;BME280;43284;47.042;15.498;2024-02-15T09:52:06;97657.16;;;8.95;73.06
57442;BME280;43284;47.042;15.498;2024-02-15T09:54:39;97654.41;;;9.00;73.03
57442;BME280;43284;47.042;15.498;2024-02-15T09:57:08;97648.19;;;9.04;74.41
57442;BME280;43284;47.042;15.498;2024-02-15T09:59:36;97647.16;;;9.08;75.48
57442;BME280;43284;47.042;15.498;2024-02-15T10:02:02;97651.38;;;9.12;75.49
57442;BME280;43284;47.042;15.498;2024-02-15T10:04:28;97648.66;;;9.15;74.95
57442;BME280;43284;47.042;15.498;2024-02-15T10:06:53;97645.88;;;9.20;74.40
57442;BME280;43284;47.042;15.498;2024-02-15T10:09:26;97644.13;;;9.20;73.65
57442;BME280;43284;47.042;15.498;2024-02-15T10:11:56;97634.47;;;9.22;72.84
57442;BME280;43284;47.042;15.498;2024-02-15T10:14:26;97631.63;;;9.30;74.13
57442;BME280;43284;47.042;15.498;2024-02-15T10:16:56;97625.38;;;9.34;71.94
57442;BME280;43284;47.042;15.498;2024-02-15T10:19:22;97622.56;;;9.40;72.66
57442;BME280;43284;47.042;15.498;2024-02-15T10:21:53;97615.19;;;9.52;74.18
57442;BME280;43284;47.042;15.498;2024-02-15T10:24:23;97619.22;;;9.60;72.25
57442;BME280;43284;47.042;15.498;2024-02-15T10:26:50;97617.41;;;9.62;71.86
57442;BME280;43284;47.042;15.498;2024-02-15T10:29:16;97620.44;;;9.74;71.91
57442;BME280;43284;47.042;15.498;2024-02-15T10:31:59;97616.59;;;9.84;71.55
57442;BME280;43284;47.042;15.498;2024-02-15T10:34:25;97619.63;;;9.95;70.76
57442;BME280;43284;47.042;15.498;2024-02-15T10:37:14;97616.69;;;10.03;69.60
57442;BME280;43284;47.042;15.498;2024-02-15T10:39:44;97617.22;;;10.13;69.86
57442;BME280;43284;47.042;15.498;2024-02-15T10:42:09;97612.00;;;10.13;66.50
57442;BME280;43284;47.042;15.498;2024-02-15T10:44:38;97615.41;;;10.15;65.75
57442;BME280;43284;47.042;15.498;2024-02-15T10:47:04;97608.50;;;10.12;63.07
57442;BME280;43284;47.042;15.498;2024-02-15T10:49:33;97605.03;;;10.11;65.03
57442;BME280;43284;47.042;15.498;2024-02-15T10:52:01;97606.50;;;10.19;65.39
57442;BME280;43284;47.042;15.498;2024-02-15T10:54:52;97606.09;;;10.29;65.97
57442;BME280;43284;47.042;15.498;2024-02-15T10:57:21;97598.84;;;10.36;64.08
57442;BME280;43284;47.042;15.498;2024-02-15T10:59:56;97593.47;;;10.41;64.60
57442;BME280;43284;47.042;15.498;2024-02-15T11:02:36;97592.50;;;10.43;65.35
57442;BME280;43284;47.042;15.498;2024-02-15T11:05:06;97592.66;;;10.61;64.55
57442;BME280;43284;47.042;15.498;2024-02-15T11:07:40;97592.69;;;10.59;65.41
57442;BME280;43284;47.042;15.498;2024-02-15T11:10:09;97577.59;;;10.66;66.30
57442;BME280;43284;47.042;15.498;2024-02-15T11:12:36;97584.47;;;10.68;65.79
57442;BME280;43284;47.042;15.498;2024-02-15T11:15:03;97584.28;;;10.93;64.82
57442;BME280;43284;47.042;15.498;2024-02-15T11:22:57;97569.47;;;11.13;64.09
57442;BME280;43284;47.042;15.498;2024-02-15T11:25:39;97563.31;;;11.14;64.27
57442;BME280;43284;47.042;15.498;2024-02-15T11:30:49;97563.84;;;11.02;62.80
57442;BME280;43284;47.042;15.498;2024-02-15T11:33:28;97555.88;;;11.05;63.15
57442;BME280;43284;47.042;15.498;2024-02-15T11:36:08;97556.41;;;11.13;62.92
57442;BME280;43284;47.042;15.498;2024-02-15T11:38:37;97552.22;;;11.28;62.13
57442;BME280;43284;47.042;15.498;2024-02-15T11:41:06;97550.59;;;11.25;60.75
57442;BME280;43284;47.042;15.498;2024-02-15T11:46:18;97552.72;;;11.36;62.91
57442;BME280;43284;47.042;15.498;2024-02-15T11:48:48;97550.47;;;11.28;61.92
57442;BME280;43284;47.042;15.498;2024-02-15T11:56:54;97548.41;;;11.16;61.50
57442;BME280;43284;47.042;15.498;2024-02-15T11:59:30;97554.00;;;11.27;61.83
57442;BME280;43284;47.042;15.498;2024-02-15T12:02:08;97549.41;;;11.32;63.15
57442;BME280;43284;47.042;15.498;2024-02-15T12:04:52;97547.09;;;11.26;61.84
57442;BME280;43284;47.042;15.498;2024-02-15T12:07:36;97549.56;;;11.29;61.61
57442;BME280;43284;47.042;15.498;2024-02-15T12:10:20;97537.88;;;11.37;61.15
57442;BME280;43284;47.042;15.498;2024-02-15T12:13:05;97540.44;;;11.38;61.12
57442;BME280;43284;47.042;15.498;2024-02-15T12:15:58;97539.16;;;11.47;63.11
57442;BME280;43284;47.042;15.498;2024-02-15T12:18:43;97541.50;;;11.53;61.96
57442;BME280;43284;47.042;15.498;2024-02-15T12:21:14;97527.19;;;11.41;61.40
57442;BME280;43284;47.042;15.498;2024-02-15T12:23:41;97520.47;;;11.36;61.47
57442;BME280;43284;47.042;15.498;2024-02-15T12:26:07;97526.44;;;11.39;61.20
57442;BME280;43284;47.042;15.498;2024-02-15T12:28:33;97524.38;;;11.46;61.11
57442;BME280;43284;47.042;15.498;2024-02-15T12:31:02;97531.81;;;11.55;61.38
57442;BME280;43284;47.042;15.498;2024-02-15T12:33:28;97525.78;;;11.53;60.57
57442;BME280;43284;47.042;15.498;2024-02-15T12:36:04;97528.97;;;11.60;60.58
57442;BME280;43284;47.042;15.498;2024-02-15T12:38:36;97523.78;;;11.58;60.85
57442;BME280;43284;47.042;15.498;2024-02-15T12:41:04;97526.41;;;11.58;60.92
57442;BME280;43284;47.042;15.498;2024-02-15T12:43:42;97527.75;;;11.67;60.75
57442;BME280;43284;47.042;15.498;2024-02-15T12:46:08;97522.28;;;11.71;61.52
57442;BME280;43284;47.042;15.498;2024-02-15T12:48:33;97515.66;;;11.64;60.51
57442;BME280;43284;47.042;15.498;2024-02-15T12:51:13;97509.56;;;11.64;60.57
57442;BME280;43284;47.042;15.498;2024-02-15T12:53:40;97498.66;;;11.73;61.20
57442;BME280;43284;47.042;15.498;2024-02-15T12:56:09;97504.84;;;11.72;60.25
57442;BME280;43284;47.042;15.498;2024-02-15T12:58:35;97496.03;;;11.73;60.69
57442;BME280;43284;47.042;15.498;2024-02-15T13:01:01;97491.88;;;11.69;60.45
57442;BME280;43284;47.042;15.498;2024-02-15T13:03:27;97491.59;;;11.75;60.81
57442;BME280;43284;47.042;15.498;2024-02-15T13:05:53;97481.88;;;11.77;60.08
57442;BME280;43284;47.042;15.498;2024-02-15T13:08:19;97488.97;;;11.75;59.68
57442;BME280;43284;47.042;15.498;2024-02-15T13:10:45;97493.34;;;11.74;59.61
57442;BME280;43284;47.042;15.498;2024-02-15T13:13:11;97484.78;;;11.71;59.38